Cooper, Iowa
Current Conditions -  °F | °C
As of 6:35 PM on Thursday 27 Nov 2014 (Local Time) from KPRO Reporting Station
Overcast Overcast  
Wind Chill: -1°   Ceiling: 10000
Heat Index: 11°   Visibility: 10mi
Dew Point:   Wind: 9mph
Humidity: 73%   Direction: 130°SE
Pressure: 30.36"   Gusts: NA
Location:  41.92°N, 94.35°W
Report Text: KPRO 280035Z AUTO 13008KT 10SM SCT080 BKN100 OVC120 M11/M15 A3036 RMK AO2 T11151154
Loading
Personal Weather Stations






























Interactive Weather Map New forecast layout! Learn more

10-Day Weather Forecast

Advertisements
Track Severe Weather on mobile